createdAt,value
2022-10-05T00:00:56.951Z,12.93
2022-10-05T00:03:26.684Z,10.20
2022-10-05T00:05:55.257Z,10.10
2022-10-05T00:08:25.208Z,12.77
2022-10-05T00:10:53.655Z,12.80
2022-10-05T00:13:24.358Z,11.03
2022-10-05T00:15:54.009Z,12.30
2022-10-05T00:18:23.469Z,13.07
2022-10-05T00:20:51.355Z,10.83
2022-10-05T00:23:22.702Z,9.90
2022-10-05T00:25:50.565Z,12.40
2022-10-05T00:28:23.067Z,13.63
2022-10-05T00:30:50.845Z,11.60
2022-10-05T00:33:18.655Z,9.33
2022-10-05T00:35:47.744Z,8.47
2022-10-05T00:38:15.567Z,11.97
2022-10-05T00:40:59.109Z,8.90
2022-10-05T00:44:02.983Z,9.57
2022-10-05T00:46:43.418Z,12.43
2022-10-05T00:49:22.829Z,9.73
2022-10-05T00:52:00.258Z,10.93
2022-10-05T00:54:35.312Z,10.03
2022-10-05T00:57:20.084Z,10.77
2022-10-05T00:59:57.982Z,11.67
2022-10-05T01:02:36.576Z,11.23
2022-10-05T01:05:11.228Z,11.83
2022-10-05T01:07:50.377Z,9.97
2022-10-05T01:10:29.177Z,11.43
2022-10-05T01:13:04.754Z,11.57
2022-10-05T01:15:37.894Z,10.60
2022-10-05T01:18:12.998Z,12.63
2022-10-05T01:20:51.349Z,12.30
2022-10-05T01:23:53.727Z,10.17
2022-10-05T01:26:44.529Z,11.93
2022-10-05T01:29:19.477Z,9.80
2022-10-05T01:31:56.679Z,10.63
2022-10-05T01:34:31.887Z,12.17
2022-10-05T01:37:12.810Z,11.10
2022-10-05T01:39:49.978Z,9.57
2022-10-05T01:42:27.350Z,11.00
2022-10-05T01:45:05.313Z,10.93
2022-10-05T01:47:43.530Z,9.07
2022-10-05T01:50:21.619Z,9.73
2022-10-05T01:52:57.768Z,14.63
2022-10-05T01:55:37.168Z,10.47
2022-10-05T01:58:12.582Z,14.57
2022-10-05T02:00:50.462Z,13.03
2022-10-05T02:03:22.008Z,14.87
2022-10-05T02:05:54.306Z,10.50
2022-10-05T02:08:27.446Z,11.57
2022-10-05T02:11:02.229Z,10.53
2022-10-05T02:13:35.965Z,11.80
2022-10-05T02:16:09.890Z,13.00
2022-10-05T02:18:41.737Z,14.03
2022-10-05T02:21:10.019Z,12.27
2022-10-05T02:23:41.365Z,13.47
2022-10-05T02:26:12.520Z,14.90
2022-10-05T02:28:44.962Z,10.00
2022-10-05T02:31:17.613Z,11.93
2022-10-05T02:33:45.735Z,13.67
2022-10-05T02:36:17.487Z,11.03
2022-10-05T02:39:00.996Z,11.87
2022-10-05T02:41:40.784Z,11.20
2022-10-05T02:44:18.256Z,13.00
2022-10-05T02:46:56.173Z,13.67
2022-10-05T02:49:34.127Z,9.67
2022-10-05T02:52:10.912Z,12.90
2022-10-05T02:54:49.328Z,15.70
2022-10-05T02:57:26.105Z,12.90
2022-10-05T02:59:59.389Z,12.87
2022-10-05T03:02:34.800Z,14.57
2022-10-05T03:05:13.917Z,12.67
2022-10-05T03:07:48.129Z,11.57
2022-10-05T03:10:26.465Z,14.03
2022-10-05T03:13:04.066Z,14.20
2022-10-05T03:15:52.215Z,13.43
2022-10-05T03:18:31.404Z,11.27
2022-10-05T03:21:08.080Z,17.10
2022-10-05T03:23:48.010Z,14.10
2022-10-05T03:26:27.650Z,11.80
2022-10-05T03:29:03.808Z,12.20
2022-10-05T03:31:39.347Z,12.90
2022-10-05T03:34:13.935Z,15.50
2022-10-05T03:36:50.217Z,11.97
2022-10-05T03:39:24.079Z,10.13
2022-10-05T03:42:01.445Z,12.43
2022-10-05T03:44:41.803Z,12.97
2022-10-05T03:47:15.830Z,15.43
2022-10-05T03:49:58.259Z,12.70
2022-10-05T03:52:35.704Z,12.67
2022-10-05T03:55:10.381Z,13.60
2022-10-05T03:57:41.360Z,10.63
2022-10-05T04:00:16.203Z,11.50
2022-10-05T04:02:49.300Z,9.47
2022-10-05T04:05:22.122Z,12.43
2022-10-05T04:07:54.717Z,12.47
2022-10-05T04:10:27.394Z,11.90
2022-10-05T04:13:02.629Z,15.80
2022-10-05T04:15:35.191Z,11.67
2022-10-05T04:18:06.607Z,9.70
2022-10-05T04:20:43.387Z,13.70
2022-10-05T04:23:20.464Z,12.17
2022-10-05T04:25:51.820Z,10.27
2022-10-05T04:28:29.642Z,10.33
2022-10-05T04:31:04.810Z,11.87
2022-10-05T04:33:33.198Z,12.87
2022-10-05T04:36:18.389Z,10.20
2022-10-05T04:38:55.081Z,10.67
2022-10-05T04:41:49.107Z,11.07
2022-10-05T04:44:43.512Z,10.93
2022-10-05T04:47:26.864Z,10.40
2022-10-05T04:50:13.864Z,10.87
2022-10-05T04:52:52.235Z,10.03
2022-10-05T04:55:28.828Z,10.63
2022-10-05T04:58:06.681Z,12.97
2022-10-05T05:00:48.042Z,11.43
2022-10-05T05:03:37.349Z,12.23
2022-10-05T05:06:17.776Z,13.73
2022-10-05T05:09:10.087Z,11.27
2022-10-05T05:11:49.596Z,11.10
2022-10-05T05:14:30.488Z,11.50
2022-10-05T05:17:13.029Z,11.87
2022-10-05T05:19:51.970Z,14.27
2022-10-05T05:22:30.277Z,13.73
2022-10-05T05:25:17.197Z,14.47
2022-10-05T05:27:49.934Z,10.00
2022-10-05T05:30:23.585Z,12.70
2022-10-05T05:33:13.310Z,11.13
2022-10-05T05:36:09.206Z,13.30
2022-10-05T05:38:42.094Z,13.10
2022-10-05T05:41:14.095Z,9.17
2022-10-05T05:43:54.459Z,11.20
2022-10-05T05:46:45.042Z,8.90
2022-10-05T05:49:19.403Z,12.93
2022-10-05T05:51:55.846Z,9.23
2022-10-05T05:54:32.588Z,9.83
2022-10-05T05:57:10.962Z,9.10
2022-10-05T05:59:51.321Z,9.80
2022-10-05T06:02:22.792Z,11.03
2022-10-05T06:04:55.889Z,9.90
2022-10-05T06:07:30.360Z,10.10
2022-10-05T06:10:02.898Z,13.40
2022-10-05T06:12:36.426Z,10.30
2022-10-05T06:15:17.265Z,11.33
2022-10-05T06:17:49.332Z,11.30
2022-10-05T06:20:25.279Z,10.53
2022-10-05T06:22:54.978Z,9.30
2022-10-05T06:25:31.108Z,11.47
2022-10-05T06:28:10.697Z,9.07
2022-10-05T06:30:49.712Z,10.23
2022-10-05T06:33:35.675Z,13.03
2022-10-05T06:36:18.721Z,9.57
2022-10-05T06:39:16.036Z,8.73
2022-10-05T06:41:59.497Z,11.37
2022-10-05T06:44:35.580Z,9.87
2022-10-05T06:47:11.608Z,10.10
2022-10-05T06:49:46.850Z,8.83
2022-10-05T06:52:26.386Z,8.23
2022-10-05T06:55:13.930Z,10.13
2022-10-05T06:57:53.166Z,8.97
2022-10-05T07:00:24.943Z,10.80
2022-10-05T07:03:01.804Z,9.77
2022-10-05T07:05:44.018Z,10.97
2022-10-05T07:08:15.019Z,7.80
2022-10-05T07:10:59.649Z,10.57
2022-10-05T07:13:51.724Z,7.83
2022-10-05T07:16:29.350Z,8.83
2022-10-05T07:19:12.352Z,10.80
2022-10-05T07:21:46.974Z,8.23
2022-10-05T07:24:29.265Z,9.30
2022-10-05T07:27:08.915Z,8.07
2022-10-05T07:29:46.704Z,8.97
2022-10-05T07:32:28.835Z,9.77
2022-10-05T07:35:05.490Z,10.97
2022-10-05T07:37:57.102Z,9.10
2022-10-05T07:40:29.855Z,14.17
2022-10-05T07:43:14.978Z,11.17
2022-10-05T07:45:47.820Z,8.37
2022-10-05T07:48:22.241Z,7.00
2022-10-05T07:51:04.345Z,8.70
2022-10-05T07:53:38.347Z,9.83
2022-10-05T07:56:14.705Z,7.30
2022-10-05T07:58:47.824Z,11.30
2022-10-05T08:01:19.697Z,7.63
2022-10-05T08:03:56.768Z,8.30
2022-10-05T08:06:40.369Z,9.63
2022-10-05T08:09:19.603Z,9.00
2022-10-05T08:11:56.695Z,6.20
2022-10-05T08:14:29.842Z,8.13
2022-10-05T08:17:02.784Z,8.57
2022-10-05T08:19:40.764Z,7.70
2022-10-05T08:22:12.512Z,8.00
2022-10-05T08:24:47.278Z,9.27
2022-10-05T08:27:21.052Z,7.73
2022-10-05T08:29:56.459Z,8.53
2022-10-05T08:32:26.891Z,10.40
2022-10-05T08:35:02.960Z,8.43
2022-10-05T08:37:38.335Z,9.13
2022-10-05T08:40:31.006Z,10.00
2022-10-05T08:43:20.691Z,11.63
2022-10-05T08:46:17.715Z,5.60
2022-10-05T08:49:37.180Z,8.33
2022-10-05T08:52:25.324Z,11.03
2022-10-05T08:55:22.505Z,7.80
2022-10-05T08:58:06.342Z,6.83
2022-10-05T09:00:49.014Z,7.67
2022-10-05T09:03:34.670Z,6.27
2022-10-05T09:06:29.080Z,7.73
2022-10-05T09:09:32.737Z,7.23
2022-10-05T09:12:25.927Z,5.50
2022-10-05T09:15:25.313Z,7.53
2022-10-05T09:18:43.009Z,6.33
2022-10-05T09:21:19.411Z,6.43
2022-10-05T09:23:52.774Z,7.57
2022-10-05T09:26:44.429Z,7.80
2022-10-05T09:29:50.997Z,6.90
2022-10-05T09:32:57.740Z,8.57
2022-10-05T09:36:04.799Z,5.67
2022-10-05T09:38:51.137Z,7.33
2022-10-05T09:41:51.066Z,7.23
2022-10-05T09:45:01.604Z,6.57
2022-10-05T09:47:56.440Z,5.63
2022-10-05T09:51:13.035Z,6.53
2022-10-05T09:54:25.351Z,11.37
2022-10-05T09:57:11.974Z,4.77
2022-10-05T10:00:21.139Z,5.03
2022-10-05T10:03:14.839Z,5.10
2022-10-05T10:06:12.823Z,8.43
2022-10-05T10:08:57.505Z,8.40
2022-10-05T10:11:42.587Z,4.97
2022-10-05T10:14:50.921Z,8.07
2022-10-05T10:17:55.524Z,6.00
2022-10-05T10:20:36.812Z,4.57
2022-10-05T10:23:29.878Z,6.73
2022-10-05T10:26:38.014Z,7.13
2022-10-05T10:29:29.846Z,7.37
2022-10-05T10:32:09.647Z,6.80
2022-10-05T10:35:07.298Z,5.65
2022-10-05T10:37:58.844Z,6.37
2022-10-05T10:40:38.938Z,4.80
2022-10-05T10:43:36.620Z,3.78
2022-10-05T10:46:14.951Z,3.55
2022-10-05T10:49:10.505Z,7.70
2022-10-05T10:51:56.956Z,6.40
2022-10-05T10:54:53.057Z,6.80
2022-10-05T10:57:30.330Z,4.43
2022-10-05T11:00:15.772Z,3.03
2022-10-05T11:03:10.284Z,5.03
2022-10-05T11:06:20.846Z,2.58
2022-10-05T11:09:33.208Z,4.85
2022-10-05T11:12:39.945Z,2.80
2022-10-05T11:15:32.076Z,3.90
2022-10-05T11:18:20.394Z,2.95
2022-10-05T11:21:34.218Z,7.32
2022-10-05T11:24:50.529Z,2.20
2022-10-05T11:27:36.259Z,3.17
2022-10-05T11:30:28.601Z,2.95
2022-10-05T11:33:22.078Z,3.15
2022-10-05T11:36:08.938Z,4.47
2022-10-05T11:39:10.326Z,2.17
2022-10-05T11:41:56.601Z,8.40
2022-10-05T11:44:47.568Z,2.55
2022-10-05T11:47:22.653Z,4.63
2022-10-05T11:50:05.542Z,3.78
2022-10-05T11:52:41.422Z,3.38
2022-10-05T11:55:24.594Z,7.90
2022-10-05T11:57:58.026Z,3.20
2022-10-05T12:00:31.750Z,3.17
2022-10-05T12:03:23.099Z,4.30
2022-10-05T12:06:19.646Z,8.13
2022-10-05T12:08:57.363Z,5.22
2022-10-05T12:11:38.950Z,2.58
2022-10-05T12:14:18.383Z,9.35
2022-10-05T12:16:52.324Z,3.97
2022-10-05T12:19:28.373Z,2.78
2022-10-05T12:22:03.763Z,2.83
2022-10-05T12:25:01.491Z,3.53
2022-10-05T12:27:35.044Z,3.63
2022-10-05T12:30:13.508Z,2.58
2022-10-05T12:32:50.083Z,4.28
2022-10-05T12:35:36.520Z,3.38
2022-10-05T12:38:16.402Z,4.80
2022-10-05T12:40:51.577Z,3.95
2022-10-05T12:43:31.796Z,3.50
2022-10-05T12:46:13.999Z,4.88
2022-10-05T12:48:58.923Z,4.20
2022-10-05T12:51:37.027Z,2.80
2022-10-05T12:54:14.659Z,2.90
2022-10-05T12:56:48.766Z,3.25
2022-10-05T12:59:30.631Z,4.20
2022-10-05T13:02:11.994Z,2.65
2022-10-05T13:04:46.903Z,6.82
2022-10-05T13:07:33.515Z,3.05
2022-10-05T13:10:09.861Z,4.57
2022-10-05T13:12:47.943Z,4.82
2022-10-05T13:15:23.721Z,4.43
2022-10-05T13:18:01.371Z,4.40
2022-10-05T13:20:33.637Z,2.63
2022-10-05T13:23:08.788Z,3.28
2022-10-05T13:25:42.342Z,3.63
2022-10-05T13:28:16.680Z,3.75
2022-10-05T13:30:58.924Z,4.35
2022-10-05T13:33:44.557Z,5.10
2022-10-05T13:36:17.561Z,2.13
2022-10-05T13:38:56.622Z,3.33
2022-10-05T13:41:37.601Z,6.13
2022-10-05T13:44:17.642Z,2.25
2022-10-05T13:46:53.503Z,1.80
2022-10-05T13:49:28.944Z,2.67
2022-10-05T13:52:07.647Z,2.38
2022-10-05T13:54:43.835Z,4.38
2022-10-05T13:57:22.932Z,2.33
2022-10-05T13:59:55.103Z,1.70
2022-10-05T14:02:28.344Z,3.33
2022-10-05T14:05:03.052Z,2.83
2022-10-05T14:07:35.212Z,3.60
2022-10-05T14:10:05.672Z,4.88
2022-10-05T14:12:41.594Z,3.60
2022-10-05T14:15:29.416Z,3.63
2022-10-05T14:17:57.598Z,2.53
2022-10-05T14:20:30.989Z,2.25
2022-10-05T14:23:02.149Z,1.75
2022-10-05T14:25:31.313Z,2.53
2022-10-05T14:28:03.345Z,2.28
2022-10-05T14:30:32.814Z,8.98
2022-10-05T14:33:16.037Z,1.60
2022-10-05T14:35:50.505Z,8.45
2022-10-05T14:38:21.332Z,5.55
2022-10-05T14:41:04.937Z,5.82
2022-10-05T14:43:33.829Z,5.80
2022-10-05T14:46:05.584Z,2.88
2022-10-05T14:48:42.467Z,3.20
2022-10-05T14:51:25.125Z,3.70
2022-10-05T14:53:58.476Z,3.35
2022-10-05T14:56:43.048Z,3.72
2022-10-05T14:59:31.781Z,4.97
2022-10-05T15:02:18.365Z,6.63
2022-10-05T15:04:56.463Z,13.38
2022-10-05T15:07:29.421Z,5.30
2022-10-05T15:10:07.775Z,3.80
2022-10-05T15:12:40.590Z,7.97
2022-10-05T15:15:25.432Z,6.40
2022-10-05T15:17:58.994Z,7.60
2022-10-05T15:20:34.322Z,3.80
2022-10-05T15:23:20.863Z,4.07
2022-10-05T15:25:55.182Z,3.00
2022-10-05T15:28:34.781Z,3.38
2022-10-05T15:31:05.693Z,13.50
2022-10-05T15:33:40.122Z,4.28
2022-10-05T15:36:17.349Z,14.30
2022-10-05T15:39:03.256Z,5.55
2022-10-05T15:41:45.070Z,3.67
2022-10-05T15:44:26.064Z,4.80
2022-10-05T15:46:59.738Z,5.30
2022-10-05T15:49:37.948Z,5.18
2022-10-05T15:52:17.718Z,8.75
2022-10-05T15:55:09.141Z,3.15
2022-10-05T15:57:45.405Z,17.20
2022-10-05T16:00:15.706Z,13.82
2022-10-05T16:02:52.746Z,7.43
2022-10-05T16:05:53.500Z,6.80
2022-10-05T16:08:54.277Z,6.88
2022-10-05T16:11:38.761Z,5.80
2022-10-05T16:14:25.723Z,7.40
2022-10-05T16:17:05.848Z,5.97
2022-10-05T16:19:41.894Z,4.57
2022-10-05T16:22:19.188Z,2.13
2022-10-05T16:24:59.762Z,5.35
2022-10-05T16:27:39.415Z,5.07
2022-10-05T16:30:10.751Z,8.55
2022-10-05T16:32:44.254Z,2.80
2022-10-05T16:35:25.044Z,3.78
2022-10-05T16:38:05.528Z,4.00
2022-10-05T16:40:41.481Z,5.40
2022-10-05T16:43:21.810Z,4.75
2022-10-05T16:46:03.194Z,4.38
2022-10-05T16:48:34.915Z,5.28
2022-10-05T16:51:25.986Z,4.60
2022-10-05T16:54:02.961Z,4.38
2022-10-05T16:56:38.689Z,10.43
2022-10-05T16:59:27.139Z,8.38
2022-10-05T17:02:04.295Z,5.25
2022-10-05T17:04:45.823Z,5.07
2022-10-05T17:07:32.865Z,6.28
2022-10-05T17:10:27.420Z,8.93
2022-10-05T17:13:04.067Z,6.65
2022-10-05T17:15:49.111Z,6.00
2022-10-05T17:18:28.417Z,5.10
2022-10-05T17:21:05.435Z,5.35
2022-10-05T17:23:42.389Z,5.88
2022-10-05T17:26:34.860Z,3.80
2022-10-05T17:29:16.470Z,8.35
2022-10-05T17:32:12.431Z,4.60
2022-10-05T17:35:00.995Z,6.80
2022-10-05T17:37:41.329Z,7.78
2022-10-05T17:40:39.697Z,3.72
2022-10-05T17:43:25.310Z,6.43
2022-10-05T17:45:56.706Z,7.43
2022-10-05T17:48:42.088Z,5.25
2022-10-05T17:52:14.133Z,4.28
2022-10-05T17:55:30.127Z,3.83
2022-10-05T17:58:00.614Z,6.78
2022-10-05T18:00:42.064Z,2.63
2022-10-05T18:03:35.093Z,8.00
2022-10-05T18:06:42.239Z,4.43
2022-10-05T18:09:21.762Z,4.50
2022-10-05T18:12:10.057Z,5.57
2022-10-05T18:15:04.114Z,6.35
2022-10-05T18:17:42.185Z,4.82
2022-10-05T18:20:31.623Z,3.47
2022-10-05T18:23:35.504Z,4.20
2022-10-05T18:26:20.908Z,4.07
2022-10-05T18:28:58.155Z,3.75
2022-10-05T18:31:35.011Z,4.20
2022-10-05T18:34:26.275Z,6.57
2022-10-05T18:37:08.893Z,3.67
2022-10-05T18:39:55.496Z,3.75
2022-10-05T18:42:32.760Z,4.85
2022-10-05T18:45:09.345Z,3.78
2022-10-05T18:47:46.492Z,3.40
2022-10-05T18:50:22.933Z,5.72
2022-10-05T18:53:02.147Z,4.53
2022-10-05T18:55:34.237Z,10.00
2022-10-05T18:58:14.600Z,5.35
2022-10-05T19:00:59.983Z,4.65
2022-10-05T19:03:35.292Z,6.88
2022-10-05T19:06:13.049Z,11.68
2022-10-05T19:08:51.776Z,8.68
2022-10-05T19:11:26.779Z,4.85
2022-10-05T19:14:06.556Z,5.65
2022-10-05T19:16:49.432Z,4.72
2022-10-05T19:19:33.509Z,3.58
2022-10-05T19:22:08.869Z,6.13
2022-10-05T19:24:48.571Z,5.45
2022-10-05T19:27:27.188Z,6.97
2022-10-05T19:30:15.456Z,3.80
2022-10-05T19:32:59.834Z,4.70
2022-10-05T19:35:34.459Z,5.03
2022-10-05T19:38:15.646Z,5.45
2022-10-05T19:40:53.790Z,2.72
2022-10-05T19:43:35.826Z,4.03
2022-10-05T19:46:19.112Z,4.30
2022-10-05T19:48:50.838Z,3.25
2022-10-05T19:51:30.414Z,5.50
2022-10-05T19:54:01.498Z,4.18
2022-10-05T19:56:33.465Z,3.33
2022-10-05T19:59:14.190Z,6.22
2022-10-05T20:01:50.680Z,6.30
2022-10-05T20:04:34.379Z,6.50
2022-10-05T20:07:02.989Z,7.22
2022-10-05T20:09:50.216Z,5.15
2022-10-05T20:12:18.059Z,6.65
2022-10-05T20:15:05.915Z,6.80
2022-10-05T20:17:52.348Z,5.20
2022-10-05T20:20:36.587Z,11.15
2022-10-05T20:23:19.699Z,7.45
2022-10-05T20:26:07.830Z,10.63
2022-10-05T20:28:35.645Z,6.75
2022-10-05T20:31:03.556Z,5.60
2022-10-05T20:33:34.253Z,4.30
2022-10-05T20:36:03.936Z,7.88
2022-10-05T20:38:40.613Z,4.22
2022-10-05T20:41:08.920Z,7.72
2022-10-05T20:43:39.168Z,4.72
2022-10-05T20:46:07.592Z,4.20
2022-10-05T20:48:37.123Z,4.05
2022-10-05T20:51:05.228Z,4.60
2022-10-05T20:53:33.651Z,4.90
2022-10-05T20:56:02.429Z,3.95
2022-10-05T20:58:30.701Z,3.80
2022-10-05T21:01:18.454Z,6.90
2022-10-05T21:03:47.994Z,6.28
2022-10-05T21:06:15.780Z,3.33
2022-10-05T21:08:44.159Z,7.82
2022-10-05T21:11:12.154Z,7.60
2022-10-05T21:13:44.654Z,6.93
2022-10-05T21:16:13.491Z,6.32
2022-10-05T21:18:41.465Z,4.28
2022-10-05T21:21:10.601Z,8.13
2022-10-05T21:23:38.390Z,4.32
2022-10-05T21:26:07.366Z,11.93
2022-10-05T21:28:35.355Z,5.57
2022-10-05T21:31:03.281Z,20.08
2022-10-05T21:33:31.423Z,6.10
2022-10-05T21:35:59.602Z,6.70
2022-10-05T21:38:29.844Z,5.85
2022-10-05T21:40:57.864Z,5.72
2022-10-05T21:43:28.166Z,4.80
2022-10-05T21:45:56.655Z,7.10
2022-10-05T21:48:26.445Z,3.03
2022-10-05T21:50:54.624Z,4.60
2022-10-05T21:53:26.444Z,2.30
2022-10-05T21:55:57.714Z,3.95
2022-10-05T21:58:29.802Z,2.25
2022-10-05T22:00:57.894Z,2.60
2022-10-05T22:03:25.937Z,1.90
2022-10-05T22:05:53.844Z,2.05
2022-10-05T22:08:26.649Z,3.00
2022-10-05T22:10:56.584Z,2.70
2022-10-05T22:13:25.991Z,1.95
2022-10-05T22:15:55.521Z,2.30
2022-10-05T22:18:25.196Z,5.27
2022-10-05T22:20:54.302Z,3.70
2022-10-05T22:23:22.055Z,3.22
2022-10-05T22:25:50.177Z,2.15
2022-10-05T22:28:19.486Z,1.65
2022-10-05T22:30:47.636Z,2.65
2022-10-05T22:33:15.384Z,3.10
2022-10-05T22:35:43.277Z,2.70
2022-10-05T22:38:11.080Z,3.10
2022-10-05T22:40:38.888Z,3.95
2022-10-05T22:43:06.778Z,4.47
2022-10-05T22:45:36.063Z,3.10
2022-10-05T22:48:03.854Z,5.13
2022-10-05T22:50:31.685Z,3.03
2022-10-05T22:52:59.395Z,3.53
2022-10-05T22:55:27.183Z,2.05
2022-10-05T22:57:54.976Z,4.63
2022-10-05T23:00:35.219Z,3.93
2022-10-05T23:03:09.901Z,5.13
2022-10-05T23:05:37.880Z,6.20
2022-10-05T23:08:05.732Z,7.73
2022-10-05T23:10:34.048Z,10.10
2022-10-05T23:13:01.924Z,7.63
2022-10-05T23:15:29.784Z,9.90
2022-10-05T23:17:57.540Z,3.57
2022-10-05T23:20:26.685Z,3.40
2022-10-05T23:22:54.446Z,5.10
2022-10-05T23:25:22.389Z,6.73
2022-10-05T23:27:50.133Z,2.73
2022-10-05T23:30:18.036Z,2.83
2022-10-05T23:32:46.217Z,3.13
2022-10-05T23:35:14.521Z,2.70
2022-10-05T23:37:45.281Z,1.17
2022-10-05T23:40:15.282Z,2.63
2022-10-05T23:42:43.296Z,3.57
2022-10-05T23:45:12.627Z,4.87
2022-10-05T23:47:40.902Z,4.30
2022-10-05T23:50:10.369Z,0.93
2022-10-05T23:52:38.575Z,3.73
2022-10-05T23:55:08.586Z,1.97
2022-10-05T23:57:36.390Z,0.97
